sensor_id;sensor_type;location;lat;lon;timestamp;temperature;humidity
18575;DHT22;9417;16.484;102.872;2023-04-01T00:00:39;28.00;75.00
18575;DHT22;9417;16.484;102.872;2023-04-01T00:02:47;28.00;75.30
18575;DHT22;9417;16.484;102.872;2023-04-01T00:04:54;28.00;75.30
18575;DHT22;9417;16.484;102.872;2023-04-01T00:07:01;28.10;75.30
18575;DHT22;9417;16.484;102.872;2023-04-01T00:09:08;28.10;75.30
18575;DHT22;9417;16.484;102.872;2023-04-01T00:11:16;28.10;75.30
18575;DHT22;9417;16.484;102.872;2023-04-01T00:13:26;28.10;75.40
18575;DHT22;9417;16.484;102.872;2023-04-01T00:15:33;28.20;75.60
18575;DHT22;9417;16.484;102.872;2023-04-01T00:17:40;28.10;75.30
18575;DHT22;9417;16.484;102.872;2023-04-01T00:19:48;28.20;75.20
18575;DHT22;9417;16.484;102.872;2023-04-01T00:21:55;28.20;75.20
18575;DHT22;9417;16.484;102.872;2023-04-01T00:24:02;28.30;75.20
18575;DHT22;9417;16.484;102.872;2023-04-01T00:26:09;28.30;75.10
18575;DHT22;9417;16.484;102.872;2023-04-01T00:28:17;28.30;74.90
18575;DHT22;9417;16.484;102.872;2023-04-01T00:30:26;28.40;75.00
18575;DHT22;9417;16.484;102.872;2023-04-01T00:32:33;28.40;75.00
18575;DHT22;9417;16.484;102.872;2023-04-01T00:34:41;28.40;74.90
18575;DHT22;9417;16.484;102.872;2023-04-01T00:36:48;28.50;75.00
18575;DHT22;9417;16.484;102.872;2023-04-01T00:38:58;28.50;75.20
18575;DHT22;9417;16.484;102.872;2023-04-01T00:41:05;28.60;75.00
18575;DHT22;9417;16.484;102.872;2023-04-01T00:43:14;28.60;74.70
18575;DHT22;9417;16.484;102.872;2023-04-01T00:45:31;28.60;74.80
18575;DHT22;9417;16.484;102.872;2023-04-01T00:47:39;28.70;74.70
18575;DHT22;9417;16.484;102.872;2023-04-01T00:49:48;28.70;74.50
18575;DHT22;9417;16.484;102.872;2023-04-01T00:51:57;28.70;74.20
18575;DHT22;9417;16.484;102.872;2023-04-01T00:54:06;28.70;74.10
18575;DHT22;9417;16.484;102.872;2023-04-01T00:56:15;28.80;74.00
18575;DHT22;9417;16.484;102.872;2023-04-01T00:58:23;28.80;74.00
18575;DHT22;9417;16.484;102.872;2023-04-01T01:00:33;28.80;73.80
18575;DHT22;9417;16.484;102.872;2023-04-01T01:02:42;28.80;73.80
18575;DHT22;9417;16.484;102.872;2023-04-01T01:04:50;28.90;73.80
18575;DHT22;9417;16.484;102.872;2023-04-01T01:07:11;28.90;73.70
18575;DHT22;9417;16.484;102.872;2023-04-01T01:09:29;29.00;73.60
18575;DHT22;9417;16.484;102.872;2023-04-01T01:11:42;29.10;73.50
18575;DHT22;9417;16.484;102.872;2023-04-01T01:13:53;29.10;73.30
18575;DHT22;9417;16.484;102.872;2023-04-01T01:16:09;29.20;73.10
18575;DHT22;9417;16.484;102.872;2023-04-01T01:18:22;29.20;72.80
18575;DHT22;9417;16.484;102.872;2023-04-01T01:25:57;29.40;72.20
18575;DHT22;9417;16.484;102.872;2023-04-01T01:28:19;29.50;71.90
18575;DHT22;9417;16.484;102.872;2023-04-01T01:30:39;29.50;71.90
18575;DHT22;9417;16.484;102.872;2023-04-01T01:33:07;29.60;71.90
18575;DHT22;9417;16.484;102.872;2023-04-01T01:35:24;29.60;71.90
18575;DHT22;9417;16.484;102.872;2023-04-01T01:37:33;29.70;71.60
18575;DHT22;9417;16.484;102.872;2023-04-01T01:39:43;29.80;71.30
18575;DHT22;9417;16.484;102.872;2023-04-01T01:41:52;29.90;70.90
18575;DHT22;9417;16.484;102.872;2023-04-01T01:44:00;29.90;70.70
18575;DHT22;9417;16.484;102.872;2023-04-01T01:46:13;29.90;70.50
18575;DHT22;9417;16.484;102.872;2023-04-01T01:48:20;30.00;70.20
18575;DHT22;9417;16.484;102.872;2023-04-01T01:50:30;30.00;69.90
18575;DHT22;9417;16.484;102.872;2023-04-01T01:52:37;30.10;70.00
18575;DHT22;9417;16.484;102.872;2023-04-01T01:54:49;30.10;69.80
18575;DHT22;9417;16.484;102.872;2023-04-01T01:57:04;30.20;69.70
18575;DHT22;9417;16.484;102.872;2023-04-01T01:59:19;30.20;69.40
18575;DHT22;9417;16.484;102.872;2023-04-01T02:01:29;30.30;69.40
18575;DHT22;9417;16.484;102.872;2023-04-01T02:03:45;30.30;69.20
18575;DHT22;9417;16.484;102.872;2023-04-01T02:05:58;30.40;68.70
18575;DHT22;9417;16.484;102.872;2023-04-01T02:08:09;30.50;68.20
18575;DHT22;9417;16.484;102.872;2023-04-01T02:10:18;30.60;67.90
18575;DHT22;9417;16.484;102.872;2023-04-01T02:12:26;30.60;67.70
18575;DHT22;9417;16.484;102.872;2023-04-01T02:14:39;30.70;67.70
18575;DHT22;9417;16.484;102.872;2023-04-01T02:16:49;30.70;67.60
18575;DHT22;9417;16.484;102.872;2023-04-01T02:18:58;30.80;67.30
18575;DHT22;9417;16.484;102.872;2023-04-01T02:21:08;30.90;67.00
18575;DHT22;9417;16.484;102.872;2023-04-01T02:23:16;30.90;66.70
18575;DHT22;9417;16.484;102.872;2023-04-01T02:25:28;31.00;66.70
18575;DHT22;9417;16.484;102.872;2023-04-01T02:27:36;31.00;66.50
18575;DHT22;9417;16.484;102.872;2023-04-01T02:29:44;31.10;66.10
18575;DHT22;9417;16.484;102.872;2023-04-01T02:31:52;31.10;66.00
18575;DHT22;9417;16.484;102.872;2023-04-01T02:34:00;31.20;66.10
18575;DHT22;9417;16.484;102.872;2023-04-01T02:36:13;31.30;65.70
18575;DHT22;9417;16.484;102.872;2023-04-01T02:38:21;31.30;65.80
18575;DHT22;9417;16.484;102.872;2023-04-01T02:40:28;31.40;65.40
18575;DHT22;9417;16.484;102.872;2023-04-01T02:42:36;31.50;65.70
18575;DHT22;9417;16.484;102.872;2023-04-01T02:44:43;31.50;65.70
18575;DHT22;9417;16.484;102.872;2023-04-01T02:46:50;31.60;65.20
18575;DHT22;9417;16.484;102.872;2023-04-01T02:48:57;31.70;64.90
18575;DHT22;9417;16.484;102.872;2023-04-01T02:51:05;31.70;64.30
18575;DHT22;9417;16.484;102.872;2023-04-01T02:53:14;31.80;64.60
18575;DHT22;9417;16.484;102.872;2023-04-01T02:55:21;31.80;64.50
18575;DHT22;9417;16.484;102.872;2023-04-01T02:57:28;31.90;64.40
18575;DHT22;9417;16.484;102.872;2023-04-01T02:59:35;31.90;64.10
18575;DHT22;9417;16.484;102.872;2023-04-01T03:01:42;32.00;64.00
18575;DHT22;9417;16.484;102.872;2023-04-01T03:03:50;32.10;64.10
18575;DHT22;9417;16.484;102.872;2023-04-01T03:05:57;32.10;63.70
18575;DHT22;9417;16.484;102.872;2023-04-01T03:08:05;32.20;63.70
18575;DHT22;9417;16.484;102.872;2023-04-01T03:10:14;32.30;63.50
18575;DHT22;9417;16.484;102.872;2023-04-01T03:12:21;32.30;62.90
18575;DHT22;9417;16.484;102.872;2023-04-01T03:14:28;32.40;62.50
18575;DHT22;9417;16.484;102.872;2023-04-01T03:16:36;32.50;62.20
18575;DHT22;9417;16.484;102.872;2023-04-01T03:18:43;32.60;61.30
18575;DHT22;9417;16.484;102.872;2023-04-01T03:20:50;32.60;61.10
18575;DHT22;9417;16.484;102.872;2023-04-01T03:22:57;32.70;61.00
18575;DHT22;9417;16.484;102.872;2023-04-01T03:25:06;32.80;60.70
18575;DHT22;9417;16.484;102.872;2023-04-01T03:27:16;32.90;60.50
18575;DHT22;9417;16.484;102.872;2023-04-01T03:29:23;32.90;59.70
18575;DHT22;9417;16.484;102.872;2023-04-01T03:31:31;33.10;60.00
18575;DHT22;9417;16.484;102.872;2023-04-01T03:33:39;33.10;60.00
18575;DHT22;9417;16.484;102.872;2023-04-01T03:35:46;33.20;59.80
18575;DHT22;9417;16.484;102.872;2023-04-01T03:37:53;33.30;59.30
18575;DHT22;9417;16.484;102.872;2023-04-01T03:40:00;33.30;59.30
18575;DHT22;9417;16.484;102.872;2023-04-01T03:42:08;33.40;58.70
18575;DHT22;9417;16.484;102.872;2023-04-01T03:44:17;33.50;58.10
18575;DHT22;9417;16.484;102.872;2023-04-01T03:46:28;33.60;58.10
18575;DHT22;9417;16.484;102.872;2023-04-01T03:48:35;33.60;58.10
18575;DHT22;9417;16.484;102.872;2023-04-01T03:50:43;33.70;58.30
18575;DHT22;9417;16.484;102.872;2023-04-01T03:52:50;33.70;57.80
18575;DHT22;9417;16.484;102.872;2023-04-01T03:54:58;33.80;57.40
18575;DHT22;9417;16.484;102.872;2023-04-01T03:57:05;33.90;57.00
18575;DHT22;9417;16.484;102.872;2023-04-01T03:59:15;34.00;56.70
18575;DHT22;9417;16.484;102.872;2023-04-01T04:01:22;34.10;56.50
18575;DHT22;9417;16.484;102.872;2023-04-01T04:03:31;34.10;56.50
18575;DHT22;9417;16.484;102.872;2023-04-01T04:05:45;34.20;55.20
18575;DHT22;9417;16.484;102.872;2023-04-01T04:07:55;34.20;54.90
18575;DHT22;9417;16.484;102.872;2023-04-01T04:10:03;34.20;55.10
18575;DHT22;9417;16.484;102.872;2023-04-01T04:12:11;34.30;54.80
18575;DHT22;9417;16.484;102.872;2023-04-01T04:14:22;34.40;54.50
18575;DHT22;9417;16.484;102.872;2023-04-01T04:16:30;34.40;54.10
18575;DHT22;9417;16.484;102.872;2023-04-01T04:18:38;34.40;53.90
18575;DHT22;9417;16.484;102.872;2023-04-01T04:20:46;34.40;53.30
18575;DHT22;9417;16.484;102.872;2023-04-01T04:22:56;34.40;53.20
18575;DHT22;9417;16.484;102.872;2023-04-01T04:25:03;34.50;53.20
18575;DHT22;9417;16.484;102.872;2023-04-01T04:27:11;34.70;52.50
18575;DHT22;9417;16.484;102.872;2023-04-01T04:29:36;34.70;52.40
18575;DHT22;9417;16.484;102.872;2023-04-01T04:31:43;34.80;52.60
18575;DHT22;9417;16.484;102.872;2023-04-01T04:33:51;34.90;52.40
18575;DHT22;9417;16.484;102.872;2023-04-01T04:35:59;34.90;52.10
18575;DHT22;9417;16.484;102.872;2023-04-01T04:38:06;34.90;51.40
18575;DHT22;9417;16.484;102.872;2023-04-01T04:40:14;35.00;51.90
18575;DHT22;9417;16.484;102.872;2023-04-01T04:42:21;35.00;52.50
18575;DHT22;9417;16.484;102.872;2023-04-01T04:44:37;35.10;52.20
18575;DHT22;9417;16.484;102.872;2023-04-01T04:46:44;35.10;52.30
18575;DHT22;9417;16.484;102.872;2023-04-01T04:48:52;35.10;51.80
18575;DHT22;9417;16.484;102.872;2023-04-01T04:50:59;35.20;51.60
18575;DHT22;9417;16.484;102.872;2023-04-01T04:53:06;35.20;51.40
18575;DHT22;9417;16.484;102.872;2023-04-01T04:55:13;35.30;51.60
18575;DHT22;9417;16.484;102.872;2023-04-01T04:57:24;35.30;51.40
18575;DHT22;9417;16.484;102.872;2023-04-01T04:59:32;35.30;50.50
18575;DHT22;9417;16.484;102.872;2023-04-01T05:01:54;35.30;51.70
18575;DHT22;9417;16.484;102.872;2023-04-01T05:04:02;35.30;51.70
18575;DHT22;9417;16.484;102.872;2023-04-01T05:06:10;35.30;51.30
18575;DHT22;9417;16.484;102.872;2023-04-01T05:08:18;35.40;51.10
18575;DHT22;9417;16.484;102.872;2023-04-01T05:10:25;35.50;51.20
18575;DHT22;9417;16.484;102.872;2023-04-01T05:12:33;35.50;51.00
18575;DHT22;9417;16.484;102.872;2023-04-01T05:14:44;35.60;51.10
18575;DHT22;9417;16.484;102.872;2023-04-01T05:16:51;35.70;51.00
18575;DHT22;9417;16.484;102.872;2023-04-01T05:19:00;35.80;50.40
18575;DHT22;9417;16.484;102.872;2023-04-01T05:21:09;35.80;49.80
18575;DHT22;9417;16.484;102.872;2023-04-01T05:23:16;35.80;49.60
18575;DHT22;9417;16.484;102.872;2023-04-01T05:25:25;35.80;49.60
18575;DHT22;9417;16.484;102.872;2023-04-01T05:27:33;35.80;49.60
18575;DHT22;9417;16.484;102.872;2023-04-01T05:29:41;35.90;49.20
18575;DHT22;9417;16.484;102.872;2023-04-01T05:32:08;36.00;48.90
18575;DHT22;9417;16.484;102.872;2023-04-01T05:34:17;36.10;48.80
18575;DHT22;9417;16.484;102.872;2023-04-01T05:36:24;36.10;48.70
18575;DHT22;9417;16.484;102.872;2023-04-01T05:38:32;36.20;48.80
18575;DHT22;9417;16.484;102.872;2023-04-01T05:40:40;36.30;48.30
18575;DHT22;9417;16.484;102.872;2023-04-01T05:42:48;36.30;48.40
18575;DHT22;9417;16.484;102.872;2023-04-01T05:44:55;36.40;48.20
18575;DHT22;9417;16.484;102.872;2023-04-01T05:47:37;36.50;47.90
18575;DHT22;9417;16.484;102.872;2023-04-01T05:49:46;36.50;47.40
18575;DHT22;9417;16.484;102.872;2023-04-01T05:51:54;36.50;47.50
18575;DHT22;9417;16.484;102.872;2023-04-01T05:54:01;36.60;47.50
18575;DHT22;9417;16.484;102.872;2023-04-01T05:56:11;36.60;47.60
18575;DHT22;9417;16.484;102.872;2023-04-01T05:58:23;36.70;47.60
18575;DHT22;9417;16.484;102.872;2023-04-01T06:00:31;36.80;47.40
18575;DHT22;9417;16.484;102.872;2023-04-01T06:02:38;36.80;47.30
18575;DHT22;9417;16.484;102.872;2023-04-01T06:04:48;36.80;47.20
18575;DHT22;9417;16.484;102.872;2023-04-01T06:06:56;36.90;46.20
18575;DHT22;9417;16.484;102.872;2023-04-01T06:09:12;36.80;45.70
18575;DHT22;9417;16.484;102.872;2023-04-01T06:11:31;36.90;45.80
18575;DHT22;9417;16.484;102.872;2023-04-01T06:13:52;37.00;45.60
18575;DHT22;9417;16.484;102.872;2023-04-01T06:16:12;37.00;44.10
18575;DHT22;9417;16.484;102.872;2023-04-01T06:18:44;37.10;44.70
18575;DHT22;9417;16.484;102.872;2023-04-01T06:21:00;37.10;44.30
18575;DHT22;9417;16.484;102.872;2023-04-01T06:23:43;37.20;44.50
18575;DHT22;9417;16.484;102.872;2023-04-01T06:26:12;37.20;43.10
18575;DHT22;9417;16.484;102.872;2023-04-01T06:28:47;37.20;43.90
18575;DHT22;9417;16.484;102.872;2023-04-01T06:31:01;37.20;44.40
18575;DHT22;9417;16.484;102.872;2023-04-01T06:33:28;37.20;45.00
18575;DHT22;9417;16.484;102.872;2023-04-01T06:35:58;37.20;45.90
18575;DHT22;9417;16.484;102.872;2023-04-01T06:38:32;37.20;45.20
18575;DHT22;9417;16.484;102.872;2023-04-01T06:43:28;36.90;43.90
18575;DHT22;9417;16.484;102.872;2023-04-01T06:46:07;36.60;44.80
18575;DHT22;9417;16.484;102.872;2023-04-01T06:48:48;36.50;44.60
18575;DHT22;9417;16.484;102.872;2023-04-01T06:51:25;36.60;45.00
18575;DHT22;9417;16.484;102.872;2023-04-01T06:53:56;36.80;45.50
18575;DHT22;9417;16.484;102.872;2023-04-01T06:56:26;36.90;45.90
18575;DHT22;9417;16.484;102.872;2023-04-01T06:58:48;37.00;46.10
18575;DHT22;9417;16.484;102.872;2023-04-01T07:00:59;37.10;46.60
18575;DHT22;9417;16.484;102.872;2023-04-01T07:03:16;37.10;46.30
18575;DHT22;9417;16.484;102.872;2023-04-01T07:05:34;37.20;46.40
18575;DHT22;9417;16.484;102.872;2023-04-01T07:07:46;37.30;46.10
18575;DHT22;9417;16.484;102.872;2023-04-01T07:09:56;37.20;45.40
18575;DHT22;9417;16.484;102.872;2023-04-01T07:12:12;37.30;45.40
18575;DHT22;9417;16.484;102.872;2023-04-01T07:15:00;37.20;45.40
18575;DHT22;9417;16.484;102.872;2023-04-01T07:17:08;37.10;45.60
18575;DHT22;9417;16.484;102.872;2023-04-01T07:19:22;37.00;45.40
18575;DHT22;9417;16.484;102.872;2023-04-01T07:21:43;37.10;46.10
18575;DHT22;9417;16.484;102.872;2023-04-01T07:24:03;37.10;46.40
18575;DHT22;9417;16.484;102.872;2023-04-01T07:26:18;36.90;46.40
18575;DHT22;9417;16.484;102.872;2023-04-01T07:28:47;36.70;46.60
18575;DHT22;9417;16.484;102.872;2023-04-01T07:31:19;36.70;46.50
18575;DHT22;9417;16.484;102.872;2023-04-01T07:33:33;36.60;47.30
18575;DHT22;9417;16.484;102.872;2023-04-01T07:35:46;36.40;47.80
18575;DHT22;9417;16.484;102.872;2023-04-01T07:38:09;36.40;48.00
18575;DHT22;9417;16.484;102.872;2023-04-01T07:40:26;36.50;47.60
18575;DHT22;9417;16.484;102.872;2023-04-01T07:42:47;36.50;47.30
18575;DHT22;9417;16.484;102.872;2023-04-01T07:45:03;36.60;47.10
18575;DHT22;9417;16.484;102.872;2023-04-01T07:47:21;36.70;47.10
18575;DHT22;9417;16.484;102.872;2023-04-01T07:49:39;36.70;48.00
18575;DHT22;9417;16.484;102.872;2023-04-01T07:51:55;36.80;48.10
18575;DHT22;9417;16.484;102.872;2023-04-01T07:54:09;36.80;47.90
18575;DHT22;9417;16.484;102.872;2023-04-01T07:56:25;36.80;47.80
18575;DHT22;9417;16.484;102.872;2023-04-01T07:58:38;36.80;48.00
18575;DHT22;9417;16.484;102.872;2023-04-01T08:01:04;36.80;48.10
18575;DHT22;9417;16.484;102.872;2023-04-01T08:03:33;36.90;48.50
18575;DHT22;9417;16.484;102.872;2023-04-01T08:05:53;36.90;48.40
18575;DHT22;9417;16.484;102.872;2023-04-01T08:08:06;36.90;47.80
18575;DHT22;9417;16.484;102.872;2023-04-01T08:10:43;36.90;48.00
18575;DHT22;9417;16.484;102.872;2023-04-01T08:13:23;36.90;48.40
18575;DHT22;9417;16.484;102.872;2023-04-01T08:16:05;36.90;48.20
18575;DHT22;9417;16.484;102.872;2023-04-01T08:18:27;37.00;48.10
18575;DHT22;9417;16.484;102.872;2023-04-01T08:20:39;37.00;48.10
18575;DHT22;9417;16.484;102.872;2023-04-01T08:22:50;36.80;48.40
18575;DHT22;9417;16.484;102.872;2023-04-01T08:25:09;36.70;48.70
18575;DHT22;9417;16.484;102.872;2023-04-01T08:27:23;36.50;48.90
18575;DHT22;9417;16.484;102.872;2023-04-01T08:29:38;36.40;49.20
18575;DHT22;9417;16.484;102.872;2023-04-01T08:31:51;36.30;49.50
18575;DHT22;9417;16.484;102.872;2023-04-01T08:34:02;36.40;50.30
18575;DHT22;9417;16.484;102.872;2023-04-01T08:36:13;36.40;50.40
18575;DHT22;9417;16.484;102.872;2023-04-01T08:38:31;36.50;50.20
18575;DHT22;9417;16.484;102.872;2023-04-01T08:40:59;36.50;49.80
18575;DHT22;9417;16.484;102.872;2023-04-01T08:46:18;36.50;49.10
18575;DHT22;9417;16.484;102.872;2023-04-01T08:49:00;36.50;49.20
18575;DHT22;9417;16.484;102.872;2023-04-01T08:54:07;36.30;49.50
18575;DHT22;9417;16.484;102.872;2023-04-01T08:56:18;36.20;49.40
18575;DHT22;9417;16.484;102.872;2023-04-01T08:58:59;36.20;50.90
18575;DHT22;9417;16.484;102.872;2023-04-01T09:01:24;36.10;50.80
18575;DHT22;9417;16.484;102.872;2023-04-01T09:03:58;36.10;50.10
18575;DHT22;9417;16.484;102.872;2023-04-01T09:08:52;35.90;50.90
18575;DHT22;9417;16.484;102.872;2023-04-01T09:11:16;35.80;50.80
18575;DHT22;9417;16.484;102.872;2023-04-01T09:14:16;35.90;50.80
18575;DHT22;9417;16.484;102.872;2023-04-01T09:16:56;36.00;51.10
18575;DHT22;9417;16.484;102.872;2023-04-01T09:19:21;36.00;51.00
18575;DHT22;9417;16.484;102.872;2023-04-01T09:21:54;36.00;51.00
18575;DHT22;9417;16.484;102.872;2023-04-01T09:24:26;35.90;50.30
18575;DHT22;9417;16.484;102.872;2023-04-01T09:26:50;36.00;49.80
18575;DHT22;9417;16.484;102.872;2023-04-01T09:29:16;35.90;50.20
18575;DHT22;9417;16.484;102.872;2023-04-01T09:34:25;35.90;50.00
18575;DHT22;9417;16.484;102.872;2023-04-01T09:36:44;35.90;50.30
18575;DHT22;9417;16.484;102.872;2023-04-01T09:38:57;35.90;50.90
18575;DHT22;9417;16.484;102.872;2023-04-01T09:41:11;35.80;51.20
18575;DHT22;9417;16.484;102.872;2023-04-01T09:43:51;35.90;51.00
18575;DHT22;9417;16.484;102.872;2023-04-01T09:46:16;35.80;50.90
18575;DHT22;9417;16.484;102.872;2023-04-01T09:48:42;35.80;51.80
18575;DHT22;9417;16.484;102.872;2023-04-01T09:51:02;35.80;52.20
18575;DHT22;9417;16.484;102.872;2023-04-01T09:53:26;35.70;52.30
18575;DHT22;9417;16.484;102.872;2023-04-01T10:01:34;35.60;52.80
18575;DHT22;9417;16.484;102.872;2023-04-01T10:04:24;35.50;52.60
18575;DHT22;9417;16.484;102.872;2023-04-01T10:12:30;35.30;52.60
18575;DHT22;9417;16.484;102.872;2023-04-01T10:17:58;35.30;52.50
18575;DHT22;9417;16.484;102.872;2023-04-01T10:20:28;35.20;52.70
18575;DHT22;9417;16.484;102.872;2023-04-01T10:25:35;35.00;53.60
18575;DHT22;9417;16.484;102.872;2023-04-01T10:28:15;35.00;53.60
18575;DHT22;9417;16.484;102.872;2023-04-01T10:31:22;34.90;54.10
18575;DHT22;9417;16.484;102.872;2023-04-01T10:36:43;34.80;54.70
18575;DHT22;9417;16.484;102.872;2023-04-01T10:50:55;34.50;55.40
18575;DHT22;9417;16.484;102.872;2023-04-01T10:53:43;34.50;55.50
18575;DHT22;9417;16.484;102.872;2023-04-01T10:56:07;34.40;55.70
18575;DHT22;9417;16.484;102.872;2023-04-01T11:02:12;34.40;55.70
18575;DHT22;9417;16.484;102.872;2023-04-01T11:05:00;34.30;56.20
18575;DHT22;9417;16.484;102.872;2023-04-01T11:10:52;34.10;56.60
18575;DHT22;9417;16.484;102.872;2023-04-01T11:13:31;34.10;57.00
18575;DHT22;9417;16.484;102.872;2023-04-01T11:19:07;34.00;58.70
18575;DHT22;9417;16.484;102.872;2023-04-01T11:24:34;33.90;59.00
18575;DHT22;9417;16.484;102.872;2023-04-01T11:27:09;33.80;59.10
18575;DHT22;9417;16.484;102.872;2023-04-01T11:32:31;33.60;59.80
18575;DHT22;9417;16.484;102.872;2023-04-01T11:37:31;33.50;60.30
18575;DHT22;9417;16.484;102.872;2023-04-01T11:40:11;33.40;60.40
18575;DHT22;9417;16.484;102.872;2023-04-01T11:42:53;33.30;60.70
18575;DHT22;9417;16.484;102.872;2023-04-01T11:45:28;33.30;61.70
18575;DHT22;9417;16.484;102.872;2023-04-01T11:47:54;33.20;63.00
18575;DHT22;9417;16.484;102.872;2023-04-01T11:50:20;33.10;63.20
18575;DHT22;9417;16.484;102.872;2023-04-01T11:52:51;33.00;64.10
18575;DHT22;9417;16.484;102.872;2023-04-01T11:55:25;32.90;64.40
18575;DHT22;9417;16.484;102.872;2023-04-01T11:57:49;32.80;64.10
18575;DHT22;9417;16.484;102.872;2023-04-01T12:00:16;32.90;63.60
18575;DHT22;9417;16.484;102.872;2023-04-01T12:02:32;32.80;63.30
18575;DHT22;9417;16.484;102.872;2023-04-01T12:07:22;32.70;64.90
18575;DHT22;9417;16.484;102.872;2023-04-01T12:09:36;32.70;65.40
18575;DHT22;9417;16.484;102.872;2023-04-01T12:11:52;32.60;65.90
18575;DHT22;9417;16.484;102.872;2023-04-01T12:14:11;32.60;65.80
18575;DHT22;9417;16.484;102.872;2023-04-01T12:16:41;32.50;67.00
18575;DHT22;9417;16.484;102.872;2023-04-01T12:18:54;32.50;67.20
18575;DHT22;9417;16.484;102.872;2023-04-01T12:21:14;32.40;67.00
18575;DHT22;9417;16.484;102.872;2023-04-01T12:23:46;32.40;67.50
18575;DHT22;9417;16.484;102.872;2023-04-01T12:26:30;32.30;68.20
18575;DHT22;9417;16.484;102.872;2023-04-01T12:28:49;32.20;68.30
18575;DHT22;9417;16.484;102.872;2023-04-01T12:31:13;32.20;67.80
18575;DHT22;9417;16.484;102.872;2023-04-01T12:35:59;32.10;69.70
18575;DHT22;9417;16.484;102.872;2023-04-01T12:38:20;32.10;67.70
18575;DHT22;9417;16.484;102.872;2023-04-01T12:40:40;32.00;67.10
18575;DHT22;9417;16.484;102.872;2023-04-01T12:43:07;32.00;67.60
18575;DHT22;9417;16.484;102.872;2023-04-01T12:45:29;32.00;68.30
18575;DHT22;9417;16.484;102.872;2023-04-01T12:48:04;31.90;68.70
18575;DHT22;9417;16.484;102.872;2023-04-01T12:50:41;31.80;68.60
18575;DHT22;9417;16.484;102.872;2023-04-01T12:53:14;31.80;69.20
18575;DHT22;9417;16.484;102.872;2023-04-01T12:55:38;31.70;67.90
18575;DHT22;9417;16.484;102.872;2023-04-01T13:03:17;31.50;71.10
18575;DHT22;9417;16.484;102.872;2023-04-01T13:05:39;31.50;71.00
18575;DHT22;9417;16.484;102.872;2023-04-01T13:08:03;31.50;71.10
18575;DHT22;9417;16.484;102.872;2023-04-01T13:10:20;31.50;70.50
18575;DHT22;9417;16.484;102.872;2023-04-01T13:15:26;31.50;69.90
18575;DHT22;9417;16.484;102.872;2023-04-01T13:17:39;31.50;69.70
18575;DHT22;9417;16.484;102.872;2023-04-01T13:19:53;31.50;69.30
18575;DHT22;9417;16.484;102.872;2023-04-01T13:22:13;31.50;70.20
18575;DHT22;9417;16.484;102.872;2023-04-01T13:24:30;31.50;71.10
18575;DHT22;9417;16.484;102.872;2023-04-01T13:26:43;31.40;71.80
18575;DHT22;9417;16.484;102.872;2023-04-01T13:29:02;31.40;71.50
18575;DHT22;9417;16.484;102.872;2023-04-01T13:31:24;31.40;71.00
18575;DHT22;9417;16.484;102.872;2023-04-01T13:33:38;31.40;70.20
18575;DHT22;9417;16.484;102.872;2023-04-01T13:35:53;31.50;69.80
18575;DHT22;9417;16.484;102.872;2023-04-01T13:38:20;31.50;69.30
18575;DHT22;9417;16.484;102.872;2023-04-01T13:40:36;31.50;68.60
18575;DHT22;9417;16.484;102.872;2023-04-01T13:43:11;31.60;67.80
18575;DHT22;9417;16.484;102.872;2023-04-01T13:45:24;31.60;66.90
18575;DHT22;9417;16.484;102.872;2023-04-01T13:48:04;31.60;66.20
18575;DHT22;9417;16.484;102.872;2023-04-01T13:50:38;31.70;65.00
18575;DHT22;9417;16.484;102.872;2023-04-01T13:55:44;31.70;63.50
18575;DHT22;9417;16.484;102.872;2023-04-01T13:58:34;31.80;63.20
18575;DHT22;9417;16.484;102.872;2023-04-01T14:00:56;31.80;62.60
18575;DHT22;9417;16.484;102.872;2023-04-01T14:03:28;31.80;62.30
18575;DHT22;9417;16.484;102.872;2023-04-01T14:05:47;31.80;61.80
18575;DHT22;9417;16.484;102.872;2023-04-01T14:08:04;31.80;62.10
18575;DHT22;9417;16.484;102.872;2023-04-01T14:10:21;31.80;62.00
18575;DHT22;9417;16.484;102.872;2023-04-01T14:12:35;31.80;62.00
18575;DHT22;9417;16.484;102.872;2023-04-01T14:14:58;31.80;61.90
18575;DHT22;9417;16.484;102.872;2023-04-01T14:17:33;31.80;61.70
18575;DHT22;9417;16.484;102.872;2023-04-01T14:22:27;31.80;61.70
18575;DHT22;9417;16.484;102.872;2023-04-01T14:24:47;31.70;61.70
18575;DHT22;9417;16.484;102.872;2023-04-01T14:27:38;31.70;61.80
18575;DHT22;9417;16.484;102.872;2023-04-01T14:32:31;31.70;61.80
18575;DHT22;9417;16.484;102.872;2023-04-01T14:35:06;31.70;61.70
18575;DHT22;9417;16.484;102.872;2023-04-01T14:37:30;31.70;61.70
18575;DHT22;9417;16.484;102.872;2023-04-01T14:40:04;31.70;61.70
18575;DHT22;9417;16.484;102.872;2023-04-01T14:42:33;31.60;61.50
18575;DHT22;9417;16.484;102.872;2023-04-01T14:47:39;31.60;61.60
18575;DHT22;9417;16.484;102.872;2023-04-01T14:49:51;31.60;61.10
18575;DHT22;9417;16.484;102.872;2023-04-01T14:52:05;31.60;61.40
18575;DHT22;9417;16.484;102.872;2023-04-01T14:54:17;31.60;61.40
18575;DHT22;9417;16.484;102.872;2023-04-01T14:56:40;31.50;61.40
18575;DHT22;9417;16.484;102.872;2023-04-01T14:58:50;31.50;61.40
18575;DHT22;9417;16.484;102.872;2023-04-01T15:01:19;31.50;61.50
18575;DHT22;9417;16.484;102.872;2023-04-01T15:03:34;31.50;61.60
18575;DHT22;9417;16.484;102.872;2023-04-01T15:05:49;31.50;61.60
18575;DHT22;9417;16.484;102.872;2023-04-01T15:08:11;31.50;61.50
18575;DHT22;9417;16.484;102.872;2023-04-01T15:12:59;31.40;61.40
18575;DHT22;9417;16.484;102.872;2023-04-01T15:15:27;31.40;61.50
18575;DHT22;9417;16.484;102.872;2023-04-01T15:17:51;31.40;61.40
18575;DHT22;9417;16.484;102.872;2023-04-01T15:20:24;31.40;61.40
18575;DHT22;9417;16.484;102.872;2023-04-01T15:22:52;31.40;61.70
18575;DHT22;9417;16.484;102.872;2023-04-01T15:25:23;31.40;61.50
18575;DHT22;9417;16.484;102.872;2023-04-01T15:27:40;31.40;61.60
18575;DHT22;9417;16.484;102.872;2023-04-01T15:30:14;31.30;61.60
18575;DHT22;9417;16.484;102.872;2023-04-01T15:32:29;31.30;61.50
18575;DHT22;9417;16.484;102.872;2023-04-01T15:34:43;31.30;61.70
18575;DHT22;9417;16.484;102.872;2023-04-01T15:36:56;31.30;61.90
18575;DHT22;9417;16.484;102.872;2023-04-01T15:39:13;31.20;62.00
18575;DHT22;9417;16.484;102.872;2023-04-01T15:41:27;31.20;62.40
18575;DHT22;9417;16.484;102.872;2023-04-01T15:43:42;31.20;62.40
18575;DHT22;9417;16.484;102.872;2023-04-01T15:45:58;31.20;62.40
18575;DHT22;9417;16.484;102.872;2023-04-01T15:48:27;31.10;62.10
18575;DHT22;9417;16.484;102.872;2023-04-01T15:50:52;31.10;62.20